Time;durP1;ratioP1;P1;durP2;ratioP2;P2;SDS_P1;SDS_P2;PMS_P1;PMS_P2;Temp;Humidity;BMP_temperature;BMP_pressure;BME280_temperature;BME280_humidity;BME280_pressure;Samples;Min_cycle;Max_cycle;Signal;HPM_P1;HPM_P2
2023/05/19 00:01:02;;;;;;;11.40;7.23;;;;;;;12.74;55.83;102531.03;5190018;28;20034;-72
2023/05/19 00:03:36;;;;;;;15.00;8.73;;;;;;;12.77;56.06;102530.06;5188278;28;20027;-71
2023/05/19 00:06:08;;;;;;;14.10;7.82;;;;;;;12.50;56.74;102528.50;5190183;28;20521;-72
2023/05/19 00:08:39;;;;;;;11.40;6.50;;;;;;;12.63;56.09;102530.63;5189954;28;20114;-72
2023/05/19 00:11:10;;;;;;;16.30;8.70;;;;;;;12.76;56.06;102534.44;5171579;28;20117;-73
2023/05/19 00:13:44;;;;;;;10.83;7.53;;;;;;;12.73;56.38;102538.97;5193168;28;20062;-70
2023/05/19 00:16:15;;;;;;;11.93;7.60;;;;;;;12.65;56.38;102534.94;5188573;28;20026;-72
2023/05/19 00:18:47;;;;;;;13.87;6.37;;;;;;;12.85;56.12;102532.34;5189871;28;20091;-72
2023/05/19 00:21:19;;;;;;;12.73;7.90;;;;;;;12.55;56.80;102521.28;5189759;28;20038;-72
2023/05/19 00:23:51;;;;;;;16.23;9.07;;;;;;;12.40;57.28;102514.03;5189752;28;20022;-72
2023/05/19 00:26:23;;;;;;;10.87;7.47;;;;;;;12.49;57.38;102518.06;5189402;28;20093;-72
2023/05/19 00:28:54;;;;;;;9.63;7.13;;;;;;;12.56;56.94;102517.75;5189403;28;20018;-70
2023/05/19 00:31:26;;;;;;;12.43;7.67;;;;;;;12.45;57.65;102510.31;5176201;28;20139;-72
2023/05/19 00:33:57;;;;;;;11.83;7.87;;;;;;;12.46;56.74;102504.13;5188422;28;20046;-72
2023/05/19 00:36:28;;;;;;;18.40;8.20;;;;;;;12.40;57.54;102498.28;5187917;28;20022;-73
2023/05/19 00:39:00;;;;;;;11.93;6.70;;;;;;;12.54;57.05;102509.09;5189492;28;20486;-73
2023/05/19 00:41:31;;;;;;;11.00;7.43;;;;;;;12.50;57.03;102509.28;5154484;28;20026;-73
2023/05/19 00:44:02;;;;;;;12.33;6.83;;;;;;;12.32;58.11;102507.31;5189723;28;20038;-73
2023/05/19 00:46:34;;;;;;;11.70;6.73;;;;;;;12.40;58.05;102506.16;5170173;28;20064;-73
2023/05/19 00:49:05;;;;;;;13.00;7.40;;;;;;;12.21;58.41;102492.00;5201573;28;20030;-73
2023/05/19 00:51:37;;;;;;;21.27;8.10;;;;;;;12.14;58.96;102494.94;5189373;28;20030;-72
2023/05/19 00:54:08;;;;;;;13.00;7.17;;;;;;;12.12;59.44;102486.25;5189462;28;20522;-73
2023/05/19 00:56:40;;;;;;;13.10;7.60;;;;;;;12.14;59.75;102502.81;5171975;28;20070;-73
2023/05/19 00:59:11;;;;;;;13.10;7.07;;;;;;;12.33;58.98;102509.03;5170939;28;20031;-72
2023/05/19 01:01:47;;;;;;;20.30;8.27;;;;;;;11.99;60.81;102505.09;5187933;28;20027;-73
2023/05/19 01:04:20;;;;;;;14.10;7.27;;;;;;;12.33;59.20;102511.66;5188765;28;20034;-71
2023/05/19 01:06:54;;;;;;;9.83;7.50;;;;;;;12.11;60.35;102509.06;5171625;28;20041;-73
2023/05/19 01:09:26;;;;;;;10.43;7.13;;;;;;;12.02;61.63;102510.25;5171601;28;20125;-73
2023/05/19 01:11:58;;;;;;;17.50;7.93;;;;;;;11.95;62.03;102500.88;5188201;28;20534;-71
2023/05/19 01:14:29;;;;;;;12.33;7.43;;;;;;;12.16;61.33;102503.63;5157291;28;20041;-72
2023/05/19 01:17:13;;;;;;;16.53;8.33;;;;;;;12.16;62.85;102506.25;5182691;28;20026;-72
2023/05/19 01:20:11;;;;;;;13.35;7.25;;;;;;;12.43;61.41;102508.66;5188887;28;20065;-73
2023/05/19 01:23:03;;;;;;;10.90;6.00;;;;;;;12.32;62.29;102504.69;5171279;28;20030;-71
2023/05/19 01:26:03;;;;;;;14.90;7.17;;;;;;;12.38;61.98;102503.59;5166671;28;20055;-73
2023/05/19 01:29:08;;;;;;;13.07;7.33;;;;;;;12.28;63.25;102508.38;5168008;28;20035;-73
2023/05/19 01:31:41;;;;;;;10.18;6.32;;;;;;;11.98;66.54;102501.63;5167118;28;20066;-73
2023/05/19 01:34:13;;;;;;;13.80;6.77;;;;;;;11.95;66.79;102506.13;5168452;28;20043;-71
2023/05/19 01:36:48;;;;;;;13.93;6.90;;;;;;;11.97;65.78;102493.81;5167925;28;20059;-73
2023/05/19 01:39:20;;;;;;;13.30;6.53;;;;;;;11.70;67.90;102497.44;5168478;28;20034;-72
2023/05/19 01:41:53;;;;;;;12.60;7.63;;;;;;;11.77;68.45;102498.06;5168144;28;20458;-70
2023/05/19 01:44:24;;;;;;;11.43;6.57;;;;;;;11.89;68.18;102503.72;5168499;28;20114;-73
2023/05/19 01:46:56;;;;;;;11.70;6.90;;;;;;;11.78;68.82;102497.13;5166359;28;20113;-74
2023/05/19 01:49:27;;;;;;;16.60;6.47;;;;;;;11.83;68.38;102497.81;5179129;28;20037;-73
2023/05/19 01:51:58;;;;;;;15.70;6.83;;;;;;;11.59;70.23;102489.97;5167900;28;20087;-72
2023/05/19 01:54:30;;;;;;;10.13;6.83;;;;;;;11.70;69.42;102481.69;5166160;28;20027;-74
2023/05/19 01:57:26;;;;;;;11.47;5.93;;;;;;;12.08;67.71;102491.59;5167995;28;20277;-74
2023/05/19 02:00:15;;;;;;;11.73;6.73;;;;;;;11.94;68.91;102486.03;5167715;28;20018;-74
2023/05/19 02:03:07;;;;;;;12.27;6.00;;;;;;;11.70;70.05;102484.31;5166565;28;20387;-71
2023/05/19 02:06:02;;;;;;;18.20;7.33;;;;;;;11.88;68.56;102487.16;5167521;28;20027;-73
2023/05/19 02:08:56;;;;;;;15.97;7.00;;;;;;;11.80;69.70;102487.44;5167953;28;20027;-73
2023/05/19 02:11:43;;;;;;;11.97;6.90;;;;;;;11.90;69.36;102487.09;5167254;28;20095;-74
2023/05/19 02:14:34;;;;;;;16.50;6.73;;;;;;;11.64;71.26;102478.44;5166078;28;20039;-74
2023/05/19 02:17:05;;;;;;;11.20;6.40;;;;;;;11.42;72.24;102487.13;5166934;28;20035;-73
2023/05/19 02:19:38;;;;;;;18.80;7.27;;;;;;;11.45;72.56;102479.16;5167400;28;20042;-74
2023/05/19 02:22:10;;;;;;;10.77;5.93;;;;;;;11.37;72.14;102480.28;5168080;28;20042;-74
2023/05/19 02:24:43;;;;;;;13.70;7.30;;;;;;;11.40;72.16;102481.09;5168223;28;20035;-73
2023/05/19 02:27:14;;;;;;;14.17;7.47;;;;;;;11.29;73.23;102482.34;5170281;28;20053;-73
2023/05/19 02:29:45;;;;;;;12.37;7.10;;;;;;;11.33;72.85;102468.19;5169795;28;20038;-73
2023/05/19 02:32:17;;;;;;;10.73;7.10;;;;;;;11.34;72.50;102477.78;5186924;28;20031;-74
2023/05/19 02:34:48;;;;;;;13.30;7.80;;;;;;;11.15;73.76;102479.34;5187532;28;20038;-74
2023/05/19 02:37:22;;;;;;;16.13;6.73;;;;;;;11.12;73.78;102473.31;5169791;28;20065;-74
2023/05/19 02:39:54;;;;;;;11.95;7.45;;;;;;;11.11;74.09;102471.59;5169977;28;20031;-73
2023/05/19 02:42:25;;;;;;;10.83;7.73;;;;;;;11.20;73.61;102464.31;5169910;28;20034;-72
2023/05/19 02:44:56;;;;;;;13.47;7.50;;;;;;;11.11;73.94;102469.00;5187735;28;20026;-74
2023/05/19 02:47:27;;;;;;;13.57;7.47;;;;;;;11.35;72.20;102481.25;5186142;28;20022;-73
2023/05/19 02:49:59;;;;;;;14.57;7.90;;;;;;;11.15;73.83;102468.88;5199682;28;20091;-74
2023/05/19 02:52:30;;;;;;;17.47;7.90;;;;;;;11.01;74.89;102470.22;5187773;28;20027;-73
2023/05/19 02:55:02;;;;;;;14.07;7.53;;;;;;;11.23;73.81;102469.44;5169543;28;20026;-73
2023/05/19 02:57:33;;;;;;;10.93;7.33;;;;;;;11.01;75.19;102462.38;5186513;28;20490;-73
2023/05/19 03:00:06;;;;;;;17.10;8.50;;;;;;;10.96;75.35;102465.13;5171811;28;20386;-73
2023/05/19 03:02:38;;;;;;;15.20;7.73;;;;;;;10.99;75.90;102458.94;5188394;28;20046;-74
2023/05/19 03:05:09;;;;;;;12.30;7.13;;;;;;;11.08;74.32;102463.81;5187135;28;20026;-71
2023/05/19 03:07:40;;;;;;;12.13;7.87;;;;;;;11.01;75.25;102462.38;5186637;28;20485;-71
2023/05/19 03:10:12;;;;;;;17.33;7.80;;;;;;;10.87;76.20;102466.31;5186858;28;20042;-73
2023/05/19 03:12:43;;;;;;;16.83;8.00;;;;;;;10.94;76.50;102458.25;5186454;28;20037;-74
2023/05/19 03:15:15;;;;;;;8.80;7.10;;;;;;;10.75;77.66;102472.00;5186939;28;20030;-71
2023/05/19 03:17:46;;;;;;;14.83;8.63;;;;;;;10.80;77.71;102464.84;5186297;28;20022;-70
2023/05/19 03:20:17;;;;;;;19.27;8.50;;;;;;;10.80;77.62;102474.44;5187274;28;20121;-72
2023/05/19 03:22:49;;;;;;;17.80;8.30;;;;;;;10.76;77.94;102473.69;5186813;28;20034;-72
2023/05/19 03:25:21;;;;;;;14.73;8.30;;;;;;;10.62;78.94;102469.78;5186351;28;20055;-72
2023/05/19 03:27:52;;;;;;;17.67;8.53;;;;;;;10.56;78.96;102472.59;5169848;28;20216;-72
2023/05/19 03:30:23;;;;;;;12.77;7.47;;;;;;;10.46;79.66;102476.41;5169382;28;20039;-72
2023/05/19 03:32:54;;;;;;;11.70;7.70;;;;;;;10.58;79.49;102483.88;5168358;28;20222;-72
2023/05/19 03:35:26;;;;;;;17.23;7.90;;;;;;;10.61;79.67;102475.09;5186585;28;20041;-72
2023/05/19 03:37:57;;;;;;;12.50;7.70;;;;;;;10.65;79.24;102477.53;5186336;28;20030;-72
2023/05/19 03:40:29;;;;;;;12.73;8.17;;;;;;;10.60;80.02;102486.47;5168963;28;20026;-73
2023/05/19 03:43:00;;;;;;;11.73;8.73;;;;;;;10.43;80.51;102487.84;5186503;28;20356;-72
2023/05/19 03:45:32;;;;;;;15.53;7.53;;;;;;;10.49;80.86;102481.59;5186372;28;20026;-72
2023/05/19 03:48:03;;;;;;;16.37;8.53;;;;;;;10.64;79.65;102490.69;5190028;28;20489;-70
2023/05/19 03:50:36;;;;;;;12.13;8.73;;;;;;;10.60;79.70;102478.59;5194818;28;20407;-73
2023/05/19 03:53:08;;;;;;;9.67;7.30;;;;;;;10.58;79.87;102489.13;5169125;28;20030;-73
2023/05/19 03:55:39;;;;;;;15.50;8.27;;;;;;;10.67;79.19;102495.81;5186306;28;20469;-72
2023/05/19 03:58:13;;;;;;;16.83;9.30;;;;;;;10.61;79.90;102489.03;5169067;28;20140;-72
2023/05/19 04:00:44;;;;;;;15.63;7.95;;;;;;;10.68;79.18;102488.84;5185572;28;20125;-73
2023/05/19 04:03:16;;;;;;;21.00;9.07;;;;;;;10.64;79.82;102485.47;5168193;28;20160;-73
2023/05/19 04:05:48;;;;;;;13.73;8.20;;;;;;;10.56;80.77;102487.50;5186218;28;20629;-72
2023/05/19 04:08:19;;;;;;;14.33;8.00;;;;;;;10.45;81.94;102479.94;5261261;28;20117;-73
2023/05/19 04:10:51;;;;;;;13.77;8.23;;;;;;;10.41;82.55;102480.06;5190301;28;20049;-72
2023/05/19 04:13:22;;;;;;;11.07;8.13;;;;;;;10.49;81.81;102486.84;5189321;28;20034;-72
2023/05/19 04:15:53;;;;;;;13.50;7.97;;;;;;;10.33;82.98;102468.97;5189086;28;20637;-73
2023/05/19 04:18:25;;;;;;;9.60;7.27;;;;;;;10.40;83.34;102488.78;5189673;28;20037;-72
2023/05/19 04:20:56;;;;;;;11.70;7.77;;;;;;;10.32;84.00;102480.34;5189959;28;20026;-72
2023/05/19 04:23:27;;;;;;;13.87;8.57;;;;;;;10.50;82.69;102478.94;5189637;28;20386;-71
2023/05/19 04:26:00;;;;;;;14.30;8.60;;;;;;;10.29;84.84;102476.06;5188979;28;20137;-73
2023/05/19 04:28:34;;;;;;;11.47;7.27;;;;;;;10.49;83.49;102477.19;5174182;28;20068;-70
2023/05/19 04:31:09;;;;;;;16.45;7.82;;;;;;;10.39;85.72;102479.25;5190687;28;20069;-72
2023/05/19 04:33:40;;;;;;;14.13;9.30;;;;;;;10.29;86.81;102488.31;5189499;28;20038;-72
2023/05/19 04:36:12;;;;;;;17.50;8.83;;;;;;;10.27;87.04;102477.88;5172493;28;20026;-72
2023/05/19 04:38:44;;;;;;;12.67;8.50;;;;;;;10.48;84.79;102483.34;5188027;28;20030;-72
2023/05/19 04:41:16;;;;;;;9.63;7.17;;;;;;;10.44;85.31;102484.31;5185552;28;20068;-72
2023/05/19 04:43:48;;;;;;;12.90;8.10;;;;;;;10.58;85.14;102485.66;5171655;28;21202;-72
2023/05/19 04:46:23;;;;;;;14.40;8.07;;;;;;;10.50;85.87;102481.53;5189550;28;20026;-72
2023/05/19 04:48:55;;;;;;;13.98;9.38;;;;;;;10.58;86.16;102491.75;5171457;28;20524;-73
2023/05/19 04:51:30;;;;;;;16.47;8.43;;;;;;;10.60;85.64;102492.56;5189342;28;20548;-72
2023/05/19 04:54:01;;;;;;;17.13;9.60;;;;;;;10.61;85.57;102491.63;5189508;28;20071;-72
2023/05/19 04:56:33;;;;;;;14.97;9.20;;;;;;;10.61;86.05;102491.63;5189263;28;20030;-73
2023/05/19 04:59:05;;;;;;;14.77;8.97;;;;;;;10.60;86.73;102487.31;5171799;28;20489;-71
2023/05/19 05:01:39;;;;;;;18.67;9.10;;;;;;;10.71;84.93;102486.97;5184157;28;20488;-70
2023/05/19 05:04:11;;;;;;;17.27;7.90;;;;;;;10.69;85.38;102493.16;5189603;28;20034;-73
2023/05/19 05:06:46;;;;;;;11.70;9.07;;;;;;;10.58;87.82;102491.75;5188992;28;20030;-72
2023/05/19 05:09:18;;;;;;;18.30;9.67;;;;;;;10.72;85.78;102485.19;5189248;28;20028;-71
2023/05/19 05:11:50;;;;;;;16.53;9.17;;;;;;;10.77;85.94;102492.00;5171106;28;20319;-73
2023/05/19 05:14:22;;;;;;;12.87;8.90;;;;;;;10.85;85.91;102493.50;5171622;28;20033;-73
2023/05/19 05:16:53;;;;;;;18.77;10.23;;;;;;;10.90;85.89;102494.19;5187712;28;20542;-73
2023/05/19 05:19:25;;;;;;;16.53;9.53;;;;;;;10.84;86.82;102494.41;5192545;28;20034;-71
2023/05/19 05:21:56;;;;;;;14.60;10.23;;;;;;;10.74;89.89;102493.84;5172134;28;20030;-73
2023/05/19 05:24:28;;;;;;;15.87;9.73;;;;;;;10.95;87.31;102489.63;5188707;28;20027;-71
2023/05/19 05:27:00;;;;;;;12.87;9.53;;;;;;;10.91;88.04;102487.19;5188801;28;20081;-72
2023/05/19 05:29:31;;;;;;;18.47;9.30;;;;;;;11.04;87.58;102490.22;5188550;28;20030;-72
2023/05/19 05:32:02;;;;;;;14.43;9.53;;;;;;;11.10;86.01;102497.88;5188235;28;20061;-71
2023/05/19 05:34:36;;;;;;;15.37;9.40;;;;;;;11.04;87.69;102504.19;5171067;28;20026;-73
2023/05/19 05:37:07;;;;;;;16.13;9.47;;;;;;;10.95;89.10;102494.03;5188939;28;20461;-73
2023/05/19 05:39:39;;;;;;;16.67;9.40;;;;;;;11.15;87.67;102500.34;5189106;28;20064;-73
2023/05/19 05:42:10;;;;;;;16.50;10.00;;;;;;;11.03;90.68;102497.22;5188846;28;20031;-73
2023/05/19 05:44:42;;;;;;;14.27;9.20;;;;;;;11.16;87.83;102499.41;5188238;28;20485;-71
2023/05/19 05:47:14;;;;;;;16.73;9.43;;;;;;;11.20;86.37;102493.16;5234070;28;20081;-73
2023/05/19 05:49:47;;;;;;;14.17;9.50;;;;;;;11.23;86.71;102490.41;5190738;28;20033;-73
2023/05/19 05:52:20;;;;;;;18.60;10.20;;;;;;;11.41;86.43;102498.53;5188891;28;20642;-72
2023/05/19 05:54:52;;;;;;;14.02;8.65;;;;;;;11.38;87.76;102502.97;5188293;28;20031;-70
2023/05/19 05:57:23;;;;;;;12.90;8.30;;;;;;;11.40;87.48;102497.66;5188668;28;20019;-69
2023/05/19 05:59:55;;;;;;;13.97;9.50;;;;;;;11.47;86.73;102496.53;5186349;28;20022;-68
2023/05/19 06:02:27;;;;;;;15.00;8.17;;;;;;;11.56;86.25;102497.09;5185009;28;20041;-68
2023/05/19 06:04:58;;;;;;;14.33;7.93;;;;;;;11.66;84.69;102487.97;5187759;28;20018;-69
2023/05/19 06:07:29;;;;;;;12.87;8.73;;;;;;;11.44;84.83;102466.94;5187822;28;20045;-70
2023/05/19 06:10:00;;;;;;;17.10;8.57;;;;;;;11.81;85.45;102499.66;5188576;28;20045;-70
2023/05/19 06:12:33;;;;;;;15.53;8.43;;;;;;;11.84;83.50;102503.94;5175268;28;20027;-71
2023/05/19 06:15:05;;;;;;;13.87;8.53;;;;;;;11.78;86.13;102505.00;5168057;28;20027;-71
2023/05/19 06:17:36;;;;;;;13.13;8.30;;;;;;;12.03;83.97;102503.19;5166695;28;20517;-71
2023/05/19 06:20:08;;;;;;;16.73;9.40;;;;;;;11.98;82.63;102493.75;5167460;28;20034;-70
2023/05/19 06:22:40;;;;;;;14.13;8.77;;;;;;;12.02;83.43;102507.63;5203656;28;20030;-71
2023/05/19 06:25:12;;;;;;;14.27;9.33;;;;;;;12.12;83.37;102502.88;5190436;28;20056;-71
2023/05/19 06:27:43;;;;;;;14.17;8.37;;;;;;;12.13;82.50;102499.31;5190198;28;20035;-70
2023/05/19 06:30:15;;;;;;;14.60;8.87;;;;;;;12.07;82.67;102507.44;5192931;28;20045;-70
2023/05/19 06:32:46;;;;;;;14.53;7.53;;;;;;;12.20;82.85;102506.03;5191279;28;20471;-71
2023/05/19 06:35:18;;;;;;;15.43;9.47;;;;;;;12.19;82.21;102506.09;5189402;28;20030;-70
2023/05/19 06:37:49;;;;;;;13.07;8.23;;;;;;;12.30;82.29;102510.94;5188890;28;20053;-71
2023/05/19 06:40:21;;;;;;;19.63;9.00;;;;;;;12.41;82.36;102508.72;5189269;28;20101;-71
2023/05/19 06:42:52;;;;;;;14.70;8.77;;;;;;;12.50;81.56;102501.41;5199515;28;20031;-71
2023/05/19 06:45:24;;;;;;;16.00;8.57;;;;;;;12.65;78.95;102499.88;5186812;28;20387;-71
2023/05/19 06:47:57;;;;;;;15.17;8.77;;;;;;;12.75;80.53;102503.84;5187631;28;20049;-70
2023/05/19 06:50:28;;;;;;;17.23;9.63;;;;;;;12.90;81.86;102501.44;5188284;28;20029;-71
2023/05/19 06:52:59;;;;;;;15.57;8.13;;;;;;;12.99;78.41;102502.81;5187269;28;20438;-71
2023/05/19 06:55:31;;;;;;;11.00;7.93;;;;;;;13.09;76.97;102498.03;5170597;28;20101;-71
2023/05/19 06:58:02;;;;;;;14.83;9.87;;;;;;;13.24;76.44;102502.63;5187674;28;20026;-70
2023/05/19 07:00:33;;;;;;;16.80;8.23;;;;;;;13.37;74.27;102499.44;5162763;28;20088;-71
2023/05/19 07:03:05;;;;;;;13.13;8.03;;;;;;;13.64;72.29;102499.13;5187334;28;20034;-70
2023/05/19 07:05:36;;;;;;;14.27;8.23;;;;;;;13.74;71.79;102483.72;5186767;28;20437;-71
2023/05/19 07:08:07;;;;;;;12.27;8.30;;;;;;;14.18;71.75;102508.88;5271324;28;20031;-70
2023/05/19 07:10:38;;;;;;;17.43;8.60;;;;;;;14.49;71.76;102504.72;5187059;28;20142;-70
2023/05/19 07:13:10;;;;;;;14.20;8.13;;;;;;;14.92;67.19;102497.38;5187348;28;20532;-71
2023/05/19 07:15:41;;;;;;;15.73;8.07;;;;;;;15.31;65.03;102493.56;5186230;28;20023;-71
2023/05/19 07:18:12;;;;;;;13.57;7.83;;;;;;;15.61;63.21;102497.25;5187201;28;20058;-71
2023/05/19 07:20:43;;;;;;;15.43;8.13;;;;;;;16.17;60.33;102495.97;5187436;28;20026;-70
2023/05/19 07:23:15;;;;;;;9.93;6.23;;;;;;;16.83;57.57;102497.44;5270628;28;20030;-71
2023/05/19 07:25:46;;;;;;;12.70;7.57;;;;;;;17.09;55.24;102495.84;5187018;28;20558;-71
2023/05/19 07:28:17;;;;;;;13.07;7.60;;;;;;;17.72;53.53;102492.03;5169713;28;20057;-71
2023/05/19 07:30:49;;;;;;;10.37;5.77;;;;;;;18.10;52.16;102499.28;5167964;28;20138;-71
2023/05/19 07:33:20;;;;;;;12.67;6.10;;;;;;;18.85;49.41;102494.31;5186756;28;20027;-70
2023/05/19 07:35:52;;;;;;;15.13;5.57;;;;;;;19.26;47.21;102480.94;5185086;28;20038;-71
2023/05/19 07:38:23;;;;;;;11.77;6.17;;;;;;;19.77;47.08;102496.84;5185817;28;20030;-71
2023/05/19 07:40:55;;;;;;;12.00;6.33;;;;;;;20.20;45.43;102484.84;5169295;28;20025;-70
2023/05/19 07:43:26;;;;;;;14.17;5.27;;;;;;;20.90;44.13;102499.97;5187411;28;20643;-71
2023/05/19 07:45:57;;;;;;;11.80;6.27;;;;;;;20.93;42.70;102494.41;5189642;28;20093;-71
2023/05/19 07:48:29;;;;;;;8.70;5.33;;;;;;;21.28;41.74;102496.13;5189523;28;20109;-71
2023/05/19 07:51:01;;;;;;;9.43;5.23;;;;;;;21.85;41.14;102492.50;5190501;28;20089;-71
2023/05/19 07:53:33;;;;;;;9.30;5.70;;;;;;;22.16;40.00;102489.13;5190412;28;20046;-71
2023/05/19 07:56:04;;;;;;;16.50;5.38;;;;;;;22.25;37.96;102487.50;5190609;28;20118;-71
2023/05/19 07:58:35;;;;;;;10.90;5.47;;;;;;;22.41;37.49;102489.69;5189976;28;20483;-71
2023/05/19 08:01:07;;;;;;;8.23;5.10;;;;;;;22.31;38.46;102489.63;5189136;28;20030;-71
2023/05/19 08:03:38;;;;;;;10.75;4.75;;;;;;;22.65;37.14;102485.94;5189608;28;20076;-71
2023/05/19 08:06:09;;;;;;;8.40;4.88;;;;;;;23.02;36.68;102486.38;5189624;28;20494;-71
2023/05/19 08:08:41;;;;;;;11.43;5.18;;;;;;;23.00;36.74;102491.88;5190357;28;20030;-71
2023/05/19 08:11:12;;;;;;;8.20;4.68;;;;;;;23.07;35.32;102484.97;5190183;28;20030;-71
2023/05/19 08:13:46;;;;;;;8.45;5.00;;;;;;;23.46;35.42;102479.94;5257328;28;20030;-71
2023/05/19 08:16:17;;;;;;;11.55;5.43;;;;;;;23.33;35.79;102481.00;5189639;28;20534;-71
2023/05/19 08:18:49;;;;;;;16.80;5.65;;;;;;;23.98;35.62;102470.81;5189387;28;20030;-71
2023/05/19 08:21:20;;;;;;;15.95;6.03;;;;;;;24.53;34.72;102472.84;5190391;28;20516;-71
2023/05/19 08:23:52;;;;;;;8.23;4.05;;;;;;;24.78;34.21;102469.66;5189478;28;20103;-71
2023/05/19 08:26:23;;;;;;;16.05;4.40;;;;;;;25.22;33.12;102465.53;5187825;28;20057;-71
2023/05/19 08:28:54;;;;;;;9.05;4.53;;;;;;;25.50;32.00;102460.13;5188865;28;20022;-71
2023/05/19 08:31:26;;;;;;;11.95;5.25;;;;;;;25.91;31.94;102461.50;5189360;28;20046;-71
2023/05/19 08:33:57;;;;;;;13.35;4.60;;;;;;;26.27;30.97;102469.47;5189353;28;20118;-71
2023/05/19 08:36:29;;;;;;;8.68;4.25;;;;;;;26.61;29.83;102467.88;5189620;28;20030;-71
2023/05/19 08:39:00;;;;;;;11.23;4.70;;;;;;;27.22;29.48;102466.94;5189466;28;20027;-71
2023/05/19 08:41:32;;;;;;;10.27;4.68;;;;;;;27.46;28.41;102457.22;5187494;28;20083;-71
2023/05/19 08:44:04;;;;;;;11.32;4.47;;;;;;;27.39;28.81;102459.75;5189291;28;20026;-72
2023/05/19 08:46:35;;;;;;;11.02;4.05;;;;;;;27.60;28.88;102444.13;5186937;28;20113;-72
2023/05/19 08:49:11;;;;;;;6.85;3.58;;;;;;;28.15;28.52;102444.47;5189549;28;20034;-72
2023/05/19 08:51:42;;;;;;;11.10;4.25;;;;;;;28.02;27.30;102448.53;5189046;28;20505;-72
2023/05/19 08:54:15;;;;;;;10.25;4.00;;;;;;;28.31;26.74;102445.44;5188767;28;20027;-72
2023/05/19 08:56:47;;;;;;;6.87;3.40;;;;;;;28.92;26.25;102438.66;5189577;28;20123;-72
2023/05/19 08:59:20;;;;;;;11.07;4.43;;;;;;;28.52;26.09;102449.44;5188761;28;20057;-71
2023/05/19 09:01:53;;;;;;;14.25;3.85;;;;;;;28.99;25.98;102440.50;5184166;28;20033;-72
2023/05/19 09:04:26;;;;;;;9.30;3.72;;;;;;;29.31;24.97;102440.47;5188573;28;20046;-72
2023/05/19 09:07:02;;;;;;;7.88;3.65;;;;;;;29.50;23.69;102438.28;5171348;28;20027;-72
2023/05/19 09:09:34;;;;;;;7.90;2.88;;;;;;;29.30;24.65;102433.41;5188814;28;20034;-72
2023/05/19 09:12:05;;;;;;;7.05;2.63;;;;;;;30.06;23.80;102434.44;5189449;28;20031;-72
2023/05/19 09:14:37;;;;;;;5.80;3.15;;;;;;;28.88;24.21;102427.38;5171674;28;20032;-72
2023/05/19 09:17:08;;;;;;;8.75;2.90;;;;;;;28.47;25.25;102429.25;5188002;28;20037;-71
2023/05/19 09:19:46;;;;;;;7.85;2.65;;;;;;;28.40;24.32;102425.56;5188661;28;20026;-72
2023/05/19 09:22:19;;;;;;;8.55;2.55;;;;;;;27.74;24.88;102416.56;5189020;28;20468;-72
2023/05/19 09:24:51;;;;;;;5.72;2.53;;;;;;;27.08;24.87;102416.47;5187272;28;20058;-72
2023/05/19 09:27:23;;;;;;;10.23;2.70;;;;;;;26.40;25.52;102404.63;5171156;28;20030;-72
2023/05/19 09:29:54;;;;;;;14.45;3.03;;;;;;;27.06;25.82;102411.28;5186661;28;20461;-72
2023/05/19 09:32:26;;;;;;;8.68;2.38;;;;;;;26.67;26.11;102409.97;5188965;28;20080;-72
2023/05/19 09:34:57;;;;;;;9.98;2.72;;;;;;;27.65;25.21;102406.78;5187459;28;20018;-71
2023/05/19 09:37:29;;;;;;;6.57;2.33;;;;;;;28.34;25.82;102404.69;5187913;28;20033;-72
2023/05/19 09:40:03;;;;;;;8.02;2.10;;;;;;;27.82;23.55;102407.66;5188275;28;20034;-72
2023/05/19 09:42:38;;;;;;;7.57;2.80;;;;;;;28.39;23.63;102410.41;5180607;28;20022;-72
2023/05/19 09:45:10;;;;;;;5.25;2.15;;;;;;;27.83;22.81;102412.03;5179372;28;20037;-72
2023/05/19 09:47:41;;;;;;;13.07;2.20;;;;;;;28.66;22.93;102415.53;5172175;28;20023;-71
2023/05/19 09:50:13;;;;;;;7.32;2.60;;;;;;;27.46;24.22;102419.56;5189610;28;20034;-69
2023/05/19 09:52:44;;;;;;;7.65;2.13;;;;;;;28.12;23.28;102417.88;5189584;28;20030;-69
2023/05/19 09:55:17;;;;;;;6.43;2.20;;;;;;;28.24;23.48;102416.47;5181036;28;20106;-69
2023/05/19 09:57:49;;;;;;;7.07;2.43;;;;;;;28.01;23.72;102405.63;5189241;28;20449;-69
2023/05/19 10:00:21;;;;;;;6.30;3.20;;;;;;;28.67;22.77;102420.75;5184416;28;20022;-69
2023/05/19 10:02:53;;;;;;;7.18;2.40;;;;;;;29.21;22.57;102419.13;5188658;28;20494;-69
2023/05/19 10:05:26;;;;;;;5.15;1.88;;;;;;;30.10;22.22;102407.06;5189097;28;20022;-68
2023/05/19 10:07:57;;;;;;;8.70;2.38;;;;;;;29.67;22.12;102403.94;5188386;28;20102;-68
2023/05/19 10:10:30;;;;;;;4.65;1.90;;;;;;;29.89;21.98;102409.47;5188781;28;20538;-69
2023/05/19 10:13:03;;;;;;;7.75;2.20;;;;;;;30.13;20.61;102412.09;5189150;28;20034;-70
2023/05/19 10:15:35;;;;;;;7.35;2.10;;;;;;;30.30;19.58;102402.00;5186838;28;20121;-69
2023/05/19 10:18:09;;;;;;;8.77;2.25;;;;;;;31.05;19.27;102406.41;5187584;28;20433;-70
2023/05/19 10:20:40;;;;;;;;;;;;;;;32.77;20.64;102405.50;5189142;28;20030;-70
2023/05/19 10:23:11;;;;;;;4.72;2.50;;;;;;;32.16;18.57;102413.34;5189536;28;20378;-71
2023/05/19 10:25:43;;;;;;;9.25;2.30;;;;;;;30.90;19.33;102409.16;5187001;28;20053;-71
2023/05/19 10:28:17;;;;;;;5.53;2.42;;;;;;;30.59;20.26;102411.06;5189084;28;20034;-71
2023/05/19 10:30:52;;;;;;;10.82;3.80;;;;;;;30.15;20.69;102407.34;5187740;28;20278;-69
2023/05/19 10:33:59;;;;;;;7.28;2.72;;;;;;;30.76;21.60;102408.13;5189294;28;20610;-70
2023/05/19 10:36:49;;;;;;;6.50;2.53;;;;;;;30.48;21.00;102404.28;5169489;28;20030;-71
2023/05/19 10:39:34;;;;;;;9.52;2.67;;;;;;;30.93;20.82;102389.03;5188489;28;20096;-70
2023/05/19 10:42:32;;;;;;;7.40;2.75;;;;;;;31.33;21.42;102381.25;5189746;28;20033;-70
2023/05/19 10:45:18;;;;;;;8.88;2.15;;;;;;;31.01;21.80;102383.47;5187880;28;20103;-71
2023/05/19 10:47:50;;;;;;;10.30;2.78;;;;;;;29.91;21.44;102385.84;5188859;28;20490;-70
2023/05/19 10:50:21;;;;;;;7.78;2.78;;;;;;;30.47;20.89;102380.16;5189082;28;20045;-71
2023/05/19 10:52:55;;;;;;;10.63;2.70;;;;;;;30.36;20.95;102387.72;5188046;28;20026;-70
2023/05/19 10:55:51;;;;;;;9.75;2.45;;;;;;;30.96;21.36;102377.81;5189035;28;20576;-71
2023/05/19 10:58:37;;;;;;;10.48;2.50;;;;;;;30.66;21.25;102382.25;5189051;28;20037;-71
2023/05/19 11:01:13;;;;;;;7.13;2.33;;;;;;;30.73;21.33;102378.78;5168164;28;20097;-71
2023/05/19 11:03:51;;;;;;;7.18;2.78;;;;;;;30.34;21.87;102370.84;5189092;28;20030;-71
2023/05/19 11:06:30;;;;;;;6.47;2.35;;;;;;;30.94;20.84;102379.88;5184116;28;20027;-70
2023/05/19 11:09:11;;;;;;;8.10;2.33;;;;;;;30.42;21.40;102386.13;5183017;28;20068;-70
2023/05/19 11:11:48;;;;;;;7.10;2.55;;;;;;;30.52;20.81;102383.13;5168309;28;20027;-66
2023/05/19 11:14:25;;;;;;;6.00;2.78;;;;;;;30.59;20.81;102365.13;5171546;28;20034;-74
2023/05/19 11:16:58;;;;;;;9.25;2.40;;;;;;;29.85;21.93;102383.84;5188613;28;20401;-72
2023/05/19 11:19:36;;;;;;;6.80;2.03;;;;;;;29.32;21.76;102376.56;5209948;28;20093;-72
2023/05/19 11:22:09;;;;;;;10.82;3.10;;;;;;;29.65;21.68;102368.22;5299378;28;20089;-71
2023/05/19 11:24:52;;;;;;;5.00;1.90;;;;;;;30.26;20.71;102379.06;5299311;28;20039;-71
2023/05/19 11:27:29;;;;;;;7.18;2.45;;;;;;;30.00;20.50;102380.34;5261671;28;20030;-71
2023/05/19 11:30:13;;;;;;;4.80;2.10;;;;;;;30.50;20.34;102374.34;5181130;28;20042;-73
2023/05/19 11:32:46;;;;;;;5.32;2.10;;;;;;;28.90;20.90;102366.03;5190627;28;20030;-74
2023/05/19 11:35:20;;;;;;;5.65;2.45;;;;;;;29.01;20.77;102372.91;5200273;28;20427;-74
2023/05/19 11:37:53;;;;;;;10.50;2.40;;;;;;;29.84;20.80;102371.38;5208141;28;20028;-76
2023/05/19 11:40:25;;;;;;;10.00;2.35;;;;;;;29.12;21.88;102363.56;5196004;28;20117;-76
2023/05/19 11:42:57;;;;;;;8.40;3.10;;;;;;;29.31;21.26;102359.53;5176219;28;20031;-75
2023/05/19 11:45:30;;;;;;;11.55;2.83;;;;;;;29.10;20.35;102352.09;5173177;28;20434;-74
2023/05/19 11:48:02;;;;;;;7.72;2.30;;;;;;;29.60;20.31;102349.00;5176113;28;20026;-74